Latest Weather Observations for Kingaroy

IDQ60801

Issued at 11:05 pm EST Tuesday 22 July 2014 (issued every 30 minutes, with the page automatically refreshed every 10 minutes)

About weather observations | Map of weather stations | Latest weather observations for QLD | Other Formats
Station Details ID: 040922 Name: KINGAROY AIRPORT Lat: -26.57 Lon: 151.84 Height: 433.67 m
Data from the previous 72 hours. | See also: Recent months at Kingaroy
Date/Time
EST
Temp
°C
App
Temp
°C
Dew
Point
Rel
Hum
%
Delta-T
°C
Wind Press
QNH
hPa
Press
MSL
hPa
Rain
since 9 am
mm
Dir
 
Spd
km/h
Gust
km/h
Spd
kts
Gust
kts
22/11:00pm 7.8 6.9 6.1 89 0.8 SW 0 0 0 0 1021.9 1021.9 0.2
22/10:30pm 8.6 7.2 7.1 90 0.7 S 4 7 2 4 1022.0 - 0.2
22/10:00pm 7.6 6.6 5.6 87 0.9 CALM 0 7 0 4 1021.9 1021.9 0.2
22/09:30pm 7.6 5.4 5.2 85 1.1 SE 6 9 3 5 1021.8 - 0.2
22/09:00pm 7.2 5.4 5.3 88 0.9 S 4 11 2 6 1021.8 1021.7 0.2
22/08:30pm 7.9 6.8 5.2 83 1.2 CALM 0 6 0 3 1021.7 - 0.2
22/08:00pm 7.9 6.6 4.3 78 1.6 CALM 0 4 0 2 1021.5 1021.4 0.2
22/07:30pm 9.4 7.2 5.2 75 1.9 SSW 6 6 3 3 1021.1 - 0.2
22/07:00pm 9.6 8.1 5.2 74 2.0 S 2 9 1 5 1020.9 1020.9 0.2
22/06:30pm 11.1 8.9 5.4 68 2.7 E 6 7 3 4 1020.5 - 0.2
22/06:00pm 11.2 8.7 4.9 65 2.9 S 7 11 4 6 1020.0 1020.0 0.2
22/05:30pm 15.0 13.9 6.8 58 4.1 S 2 6 1 3 1019.6 - 0.2
22/05:00pm 17.4 14.9 6.6 49 5.4 E 9 11 5 6 1019.3 1019.2 0.2
22/04:30pm 18.5 16.5 6.4 45 6.1 ENE 6 9 3 5 1019.1 - 0.2
22/04:00pm 18.4 15.8 6.3 45 6.1 ENE 9 15 5 8 1018.9 1018.8 0.2
22/03:30pm 17.9 15.6 5.8 45 6.0 NNE 7 9 4 5 1018.9 - 0.2
22/03:00pm 18.4 15.8 5.9 44 6.3 NNE 9 13 5 7 1018.8 1018.7 0.2
22/02:30pm 18.8 16.1 5.6 42 6.6 W 9 13 5 7 1018.9 - 0.2
22/02:00pm 19.1 16.1 5.9 42 6.6 WNW 11 20 6 11 1019.0 1018.9 0.2
22/01:30pm 18.8 16.0 5.3 41 6.7 NNW 9 13 5 7 1019.3 - 0.2
22/01:00pm 19.3 16.9 6.8 44 6.4 WNW 9 15 5 8 1019.7 1019.6 0.2
22/12:30pm 18.9 17.1 9.4 54 5.1 N 9 13 5 7 1020.3 - 0.2
22/12:00pm 17.7 16.3 9.6 59 4.3 N 7 11 4 6 1021.0 1021.0 0.2
22/11:30am 17.2 16.2 10.3 64 3.7 WNW 6 11 3 6 1021.8 - 0.2
22/11:00am 15.6 14.6 10.2 70 2.9 NNE 6 7 3 4 1022.4 1022.4 0.0
22/10:30am 14.2 12.7 10.6 79 1.9 E 9 13 5 7 1022.8 - 0.0
22/10:00am 13.8 13.0 11.1 84 1.5 SE 6 11 3 6 1023.0 1023.0 0.0
22/09:30am 13.4 12.3 12.0 91 0.8 SSE 9 15 5 8 1023.1 - 0.0
22/09:00am 12.5 11.5 12.3 99 0.1 ESE 9 13 5 7 1023.1 1023.1 0.0
22/08:30am 11.5 10.6 11.3 99 0.1 ESE 7 11 4 6 1022.9 - 0.0
22/08:00am 10.2 10.3 10.0 99 0.1 CALM 0 0 0 0 1022.9 1022.9 0.0
22/07:30am 8.9 8.6 8.8 99 0.0 CALM 0 0 0 0 1022.7 - 0.0
22/07:00am 7.9 7.4 7.8 99 0.0 CALM 0 0 0 0 1022.3 1022.3 0.0
22/06:30am 7.3 6.7 7.2 99 0.0 CALM 0 0 0 0 1022.0 - 0.0
22/06:00am 6.8 6.0 6.7 99 0.0 CALM 0 0 0 0 1021.9 1021.9 0.0
22/05:30am 6.1 5.2 6.0 99 0.0 CALM 0 0 0 0 1021.6 - 0.0
22/05:00am 5.8 4.8 5.7 99 0.0 CALM 0 0 0 0 1021.5 1021.4 0.0
22/04:30am 5.7 4.7 5.6 99 0.0 CALM 0 0 0 0 1021.4 - 0.0
22/04:00am 5.4 4.3 5.3 99 0.0 CALM 0 0 0 0 1021.3 1021.2 0.0
22/03:30am 4.9 3.7 4.8 99 0.0 CALM 0 0 0 0 1021.3 - 0.0
22/03:00am 4.3 2.2 4.0 98 0.1 S 4 7 2 4 1021.5 1021.4 0.0
22/02:30am 5.2 4.1 4.9 98 0.1 CALM 0 0 0 0 1021.4 - 0.0
22/02:00am 4.5 3.2 4.2 98 0.1 CALM 0 0 0 0 1021.6 1021.5 0.0
22/01:30am 5.3 3.8 4.9 97 0.2 SSE 2 7 1 4 1021.9 - 0.0
22/01:00am 5.3 2.8 4.7 96 0.3 S 7 7 4 4 1022.2 1022.2 0.0
22/12:30am 5.7 4.1 4.5 92 0.5 SSE 2 6 1 3 1022.2 - 0.0
22/12:00am 6.3 4.1 5.4 94 0.4 SSE 6 7 3 4 1022.2 1022.2 0.0
 
Date/Time
EST
Temp
°C
App
Temp
°C
Dew
Point
Rel
Hum
%
Delta-T
°C
Wind Press
QNH
hPa
Press
MSL
hPa
Rain
since 9 am
mm
Dir
 
Spd
km/h
Gust
km/h
Spd
kts
Gust
kts
21/11:30pm 7.0 4.8 6.4 96 0.3 S 7 11 4 6 1022.6 - 0.0
21/11:00pm 7.3 5.2 6.6 95 0.3 S 7 9 4 5 1022.8 1022.8 0.0
21/10:30pm 7.7 6.1 6.3 91 0.7 SSE 4 7 2 4 1022.9 - 0.0
21/10:00pm 8.4 6.3 6.5 88 0.9 S 7 9 4 5 1022.9 1022.9 0.0
21/09:30pm 9.8 9.3 7.7 87 1.0 CALM 0 0 0 0 1022.8 - 0.0
21/09:00pm 10.7 9.2 8.3 85 1.2 ESE 6 7 3 4 1022.5 1022.5 0.0
21/08:30pm 11.5 11.1 8.4 81 1.6 CALM 0 6 0 3 1022.4 - 0.0
21/08:00pm 12.0 9.9 8.1 77 2.0 E 9 11 5 6 1022.1 1022.1 0.0
21/07:30pm 12.7 10.2 8.2 74 2.3 E 11 13 6 7 1021.7 - 0.0
21/07:00pm 12.9 10.0 8.2 73 2.4 E 13 15 7 8 1021.4 1021.3 0.0
21/06:30pm 12.6 9.8 7.1 69 2.7 E 11 13 6 7 1021.1 - 0.0
21/06:00pm 13.7 10.9 7.0 64 3.3 E 11 13 6 7 1020.9 1020.9 0.0
21/05:30pm 15.5 13.1 7.0 57 4.3 ESE 9 13 5 7 1020.6 - 0.0
21/05:00pm 17.2 14.5 7.3 52 5.1 ESE 11 15 6 8 1020.4 1020.4 0.0
21/04:30pm 18.4 16.1 7.5 49 5.6 ESE 9 17 5 9 1020.3 - 0.0
21/04:00pm 19.5 17.1 6.9 44 6.5 S 9 20 5 11 1020.1 1020.1 0.0
21/03:30pm 19.1 17.1 6.2 43 6.5 SSW 6 9 3 5 1020.1 - 0.0
21/03:00pm 19.0 16.2 6.8 45 6.2 ESE 11 17 6 9 1020.0 1020.0 0.0
21/02:30pm 18.5 16.4 6.7 46 6.0 E 7 13 4 7 1020.1 - 0.0
21/02:00pm 19.6 16.9 7.4 45 6.3 E 11 20 6 11 1020.1 1020.1 0.0
21/01:30pm 18.9 16.4 8.3 50 5.6 ESE 11 17 6 9 1020.3 - 0.0
21/01:00pm 17.8 14.8 7.5 51 5.3 SE 13 20 7 11 1020.7 1020.7 0.0
21/12:30pm 17.2 13.9 8.1 55 4.7 SE 15 24 8 13 1021.1 - 0.0
21/12:00pm 19.0 16.1 9.5 54 5.1 ESE 15 20 8 11 1021.7 1021.6 0.0
21/11:30am 17.3 13.7 8.4 56 4.7 ESE 17 26 9 14 1022.4 - 0.0
21/11:00am 17.1 14.2 8.3 56 4.6 SE 13 20 7 11 1022.9 1022.9 0.0
21/10:30am 16.5 13.0 8.7 60 4.1 E 17 24 9 13 1023.3 - 0.0
21/10:00am 15.8 12.7 8.8 63 3.6 ESE 15 22 8 12 1023.5 1023.5 0.0
21/09:30am 14.6 11.7 8.3 66 3.2 SE 13 17 7 9 1023.8 - 0.0
21/09:00am 13.8 11.8 8.6 71 2.7 SSE 9 15 5 8 1023.8 1023.7 0.0
21/08:30am 9.7 8.2 4.9 72 2.2 NNE 2 6 1 3 1023.8 - 0.0
21/08:00am 6.0 4.5 3.2 82 1.2 CALM 0 0 0 0 1023.5 1023.5 0.0
21/07:30am 1.7 -0.3 -0.1 88 0.7 CALM 0 0 0 0 1023.4 - 0.0
21/07:00am 0.7 -1.4 -1.1 88 0.6 CALM 0 0 0 0 1023.2 1023.2 0.0
21/06:30am 0.5 -1.7 -1.3 88 0.7 CALM 0 0 0 0 1022.9 - 0.0
21/06:00am 0.0 -2.3 -2.1 86 0.7 CALM 0 0 0 0 1022.4 1022.4 0.0
21/05:30am 0.2 -2.1 -2.0 85 0.8 CALM 0 0 0 0 1022.3 - 0.0
21/05:00am 0.7 -1.5 -1.5 85 0.8 CALM 0 0 0 0 1022.0 1022.0 0.0
21/04:30am 1.1 -1.0 -1.1 85 0.8 CALM 0 0 0 0 1021.9 - 0.0
21/04:00am 0.9 -1.3 -1.7 83 1.0 CALM 0 0 0 0 1021.8 1021.7 0.0
21/03:30am 0.8 -2.6 -1.8 83 1.0 S 6 9 3 5 1021.8 - 0.0
21/03:00am 1.0 -1.2 -1.7 82 1.0 CALM 0 0 0 0 1021.9 1021.9 0.0
21/02:30am 1.5 -2.1 -2.1 77 1.3 E 7 9 4 5 1022.1 - 0.0
21/02:00am 1.7 -0.6 -2.1 76 1.3 CALM 0 6 0 3 1022.3 1022.3 0.0
21/01:30am 1.3 -0.9 -1.9 79 1.1 CALM 0 0 0 0 1022.2 - 0.0
21/01:00am 1.9 -0.4 -2.1 75 1.4 CALM 0 0 0 0 1022.1 1022.1 0.0
21/12:30am 2.4 0.2 -1.7 74 1.5 CALM 0 0 0 0 1022.4 - 0.0
21/12:00am 2.4 0.2 -1.6 75 1.4 CALM 0 0 0 0 1022.5 1022.5 0.0
 
Date/Time
EST
Temp
°C
App
Temp
°C
Dew
Point
Rel
Hum
%
Delta-T
°C
Wind Press
QNH
hPa
Press
MSL
hPa
Rain
since 9 am
mm
Dir
 
Spd
km/h
Gust
km/h
Spd
kts
Gust
kts
20/11:30pm 2.0 -1.4 -2.0 75 1.4 SSE 6 7 3 4 1022.6 - 0.0
20/11:00pm 3.8 0.3 -1.2 70 1.9 E 7 7 4 4 1022.8 1022.8 0.0
20/10:30pm 3.9 1.7 -1.5 68 2.0 CALM 0 0 0 0 1022.8 - 0.0
20/10:00pm 4.0 1.8 -1.6 67 2.1 CALM 0 0 0 0 1022.6 1022.6 0.0
20/09:30pm 4.5 1.0 -1.3 66 2.2 S 7 9 4 5 1022.9 - 0.0
20/09:00pm 5.3 3.0 -2.3 58 2.8 CALM 0 6 0 3 1022.6 1022.6 0.0
20/08:30pm 6.5 2.7 -0.9 59 2.9 S 9 11 5 6 1022.6 - 0.0
20/08:00pm 6.6 4.4 -1.3 57 3.0 CALM 0 0 0 0 1022.4 1022.4 0.0
20/07:30pm 7.5 5.4 -0.9 55 3.3 CALM 0 0 0 0 1022.3 - 0.0
20/07:00pm 9.6 5.7 -1.7 45 4.4 SSE 9 11 5 6 1021.9 1021.9 0.0
20/06:30pm 12.2 7.6 -1.3 39 5.5 SSE 13 15 7 8 1021.6 - 0.0
20/06:00pm 12.4 8.0 -2.6 35 6.0 SSE 11 15 6 8 1021.0 1021.0 0.0
20/05:30pm 13.9 9.4 -2.9 31 6.8 SSE 11 13 6 7 1020.5 - 0.0
20/05:00pm 16.2 10.9 -3.3 26 7.9 S 15 17 8 9 1020.2 1020.2 0.0
20/04:30pm 17.8 12.9 -3.0 24 8.7 SSW 13 19 7 10 1020.0 - 0.0
20/04:00pm 18.4 13.3 -2.0 25 8.7 SSW 15 20 8 11 1019.8 1019.7 0.0
20/03:30pm 19.1 14.2 -3.1 22 9.4 SSW 13 19 7 10 1019.5 - 0.0
20/03:00pm 19.3 14.1 0.4 28 8.5 SSW 17 28 9 15 1019.6 1019.5 0.0
20/02:30pm 19.0 15.4 0.6 29 8.4 SW 9 15 5 8 1019.7 - 0.0
20/02:00pm 18.6 14.3 0.7 30 8.1 SSW 13 24 7 13 1020.0 1020.0 0.0
20/01:30pm 18.3 14.7 0.4 30 8.0 SW 9 19 5 10 1020.2 - 0.0
20/01:00pm 17.5 13.0 1.9 35 7.2 SSW 15 26 8 14 1020.8 1020.8 0.0
20/12:30pm 17.4 12.0 1.4 34 7.3 S 19 24 10 13 1021.3 - 0.0
20/12:00pm 16.8 13.0 2.0 37 6.8 ESE 11 17 6 9 1021.6 1021.5 0.0
20/11:30am 16.9 12.9 2.9 39 6.5 SE 13 20 7 11 1022.0 - 0.0
20/11:00am 15.7 10.9 2.8 42 5.9 SE 17 22 9 12 1022.3 1022.3 0.0
20/10:30am 14.8 10.0 2.4 43 5.6 SSE 17 22 9 12 1022.5 - 0.0
20/10:00am 14.6 9.8 2.8 45 5.4 SSE 17 26 9 14 1022.5 1022.5 0.0
20/09:30am 13.7 9.7 2.6 47 5.0 SE 13 20 7 11 1022.4 - 0.0
20/09:00am 9.9 7.5 2.3 59 3.3 NW 4 7 2 4 1022.4 1022.4 0.0
20/08:30am 6.5 3.6 1.4 70 2.1 NNW 6 7 3 4 1022.4 - 0.0
20/08:00am 3.6 1.7 0.5 80 1.2 CALM 0 0 0 0 1022.1 1022.1 0.0
20/07:30am -0.5 -2.8 -2.1 89 0.5 CALM 0 0 0 0 1021.9 - 0.0
20/07:00am -1.2 -3.6 -3.1 87 0.6 CALM 0 0 0 0 1021.7 1021.6 0.0
20/06:30am -1.0 -3.8 -2.9 87 0.6 S 2 7 1 4 1021.4 - 0.0
20/06:00am -1.1 -5.2 -2.8 88 0.5 S 9 13 5 7 1021.0 1021.0 0.0
20/05:30am -0.2 -2.5 -2.7 83 0.9 CALM 0 0 0 0 1020.7 - 0.0
20/05:00am 0.5 -1.8 -2.2 82 1.0 CALM 0 0 0 0 1020.5 1020.5 0.0
20/04:30am 1.9 -0.7 -1.7 77 1.3 ESE 2 9 1 5 1020.3 - 0.0
20/04:00am 2.8 0.2 -1.7 72 1.6 N 2 7 1 4 1020.6 1020.6 0.0
20/03:30am 4.5 2.1 -0.3 71 1.9 NW 2 7 1 4 1020.2 - 0.0
20/03:00am 5.3 0.8 -0.3 67 2.2 S 13 15 7 8 1020.0 1020.0 0.0
20/02:30am 3.8 -1.2 -1.0 71 1.8 SSW 15 17 8 9 1020.3 - 0.0
20/02:00am 4.5 0.0 -0.5 70 1.9 S 13 17 7 9 1020.1 1020.1 0.0
20/01:30am 6.0 0.7 -0.5 63 2.5 S 17 20 9 11 1020.3 - 0.0
20/01:00am 5.6 0.3 -0.4 65 2.3 S 17 20 9 11 1020.7 1020.7 0.0
20/12:30am 5.8 0.9 -0.7 63 2.5 S 15 17 8 9 1021.0 - 0.0
20/12:00am 5.6 0.7 -0.7 64 2.4 S 15 17 8 9 1021.3 1021.2 0.0
 
Date/Time
EST
Temp
°C
App
Temp
°C
Dew
Point
Rel
Hum
%
Delta-T
°C
Wind Press
QNH
hPa
Press
MSL
hPa
Rain
since 9 am
mm
Dir
 
Spd
km/h
Gust
km/h
Spd
kts
Gust
kts
19/11:30pm 5.2 1.3 -1.5 62 2.5 SSW 9 13 5 7 1021.5 - 0.0

Other Formats:

Comma delimited format used in spreadsheet applications
http://www.bom.gov.au/fwo/IDQ60801/IDQ60801.94549.axf

JavaScript Object Notation format (JSON) in row-major order
http://www.bom.gov.au/fwo/IDQ60801/IDQ60801.94549.json